Time;durP1;ratioP1;P1;durP2;ratioP2;P2;SDS_P1;SDS_P2;PMS_P1;PMS_P2;Temp;Humidity;BMP_temperature;BMP_pressure;BME280_temperature;BME280_humidity;BME280_pressure;Samples;Min_cycle;Max_cycle;Signal;HPM_P1;HPM_P2
2022/06/20 00:00:58;;;;;;;1.55;1.00;;;;;;;13.84;73.42;101282.63;5093105;28;20445;-78
2022/06/20 00:03:28;;;;;;;1.90;1.10;;;;;;;13.82;73.66;101280.94;5092865;28;20044;-79
2022/06/20 00:05:54;;;;;;;0.95;0.90;;;;;;;13.82;73.10;101283.56;5093204;28;20031;-78
2022/06/20 00:08:20;;;;;;;0.60;0.60;;;;;;;13.82;73.31;101291.38;5093212;28;20032;-78
2022/06/20 00:10:46;;;;;;;0.67;0.60;;;;;;;13.80;73.58;101286.19;5092928;28;20277;-79
2022/06/20 00:13:19;;;;;;;0.60;0.60;;;;;;;13.80;73.94;101277.50;5094342;28;20032;-79
2022/06/20 00:15:47;;;;;;;0.50;0.40;;;;;;;13.79;73.80;101273.19;5092660;28;20027;-78
2022/06/20 00:18:12;;;;;;;1.15;0.65;;;;;;;13.75;73.60;101283.66;5094207;28;20069;-78
2022/06/20 00:20:37;;;;;;;0.93;0.60;;;;;;;13.72;73.04;101294.19;5092527;28;20023;-79
2022/06/20 00:23:03;;;;;;;0.73;0.70;;;;;;;13.70;73.40;101295.09;5092678;28;20020;-78
2022/06/20 00:25:31;;;;;;;0.70;0.70;;;;;;;13.68;73.34;101299.50;5093287;28;20016;-78
2022/06/20 00:27:57;;;;;;;1.85;0.85;;;;;;;13.71;73.04;101318.56;5093090;28;20036;-78
2022/06/20 00:30:23;;;;;;;1.73;0.80;;;;;;;13.73;72.81;101340.25;5093186;28;20074;-78
2022/06/20 00:32:49;;;;;;;2.43;1.10;;;;;;;13.77;72.92;101353.22;5092839;28;20018;-78
2022/06/20 00:35:15;;;;;;;0.80;0.40;;;;;;;13.79;72.63;101354.06;5093582;28;20024;-78
2022/06/20 00:37:41;;;;;;;0.70;0.70;;;;;;;13.79;72.75;101357.50;5093519;28;20097;-78
2022/06/20 00:40:19;;;;;;;1.00;0.53;;;;;;;13.83;72.63;101381.81;5093603;28;20377;-78
2022/06/20 00:42:44;;;;;;;0.70;0.70;;;;;;;13.85;72.51;101393.03;5093118;28;20103;-78
2022/06/20 00:45:12;;;;;;;0.53;0.50;;;;;;;13.86;72.77;101408.69;5092972;28;20512;-78
2022/06/20 00:47:37;;;;;;;0.60;0.60;;;;;;;13.88;72.77;101419.09;5092340;28;20491;-78
2022/06/20 00:50:14;;;;;;;1.03;0.70;;;;;;;13.92;72.69;101451.19;5093939;28;20029;-78
2022/06/20 00:53:14;;;;;;;0.73;0.70;;;;;;;13.93;72.80;101485.09;5093259;28;20036;-78
2022/06/20 00:55:52;;;;;;;0.60;0.60;;;;;;;13.95;72.85;101524.19;5092863;28;20086;-78
2022/06/20 00:58:37;;;;;;;0.82;0.57;;;;;;;13.93;73.90;101539.91;5092585;28;20039;-78
2022/06/20 01:01:04;;;;;;;1.65;0.73;;;;;;;13.86;73.61;101533.91;5093573;28;20111;-78
2022/06/20 01:03:36;;;;;;;1.15;0.90;;;;;;;13.83;73.85;101518.31;5091633;28;20075;-78
2022/06/20 01:06:14;;;;;;;1.63;0.75;;;;;;;13.78;74.51;101490.59;5091937;28;20024;-78
2022/06/20 01:08:51;;;;;;;0.55;0.55;;;;;;;13.75;73.41;101474.09;5092976;28;20028;-78
2022/06/20 01:11:21;;;;;;;0.82;0.65;;;;;;;13.75;73.29;101452.38;5093147;28;20028;-78
2022/06/20 01:13:47;;;;;;;0.65;0.47;;;;;;;13.78;73.15;101459.28;5091764;28;20028;-78
2022/06/20 01:16:12;;;;;;;0.87;0.60;;;;;;;13.80;73.12;101460.97;5093163;28;20036;-78
2022/06/20 01:18:40;;;;;;;0.87;0.50;;;;;;;13.81;73.10;101435.75;5093055;28;20032;-78
2022/06/20 01:21:19;;;;;;;0.50;0.50;;;;;;;13.80;73.13;101429.66;5094677;28;20020;-78
2022/06/20 01:24:23;;;;;;;0.95;0.52;;;;;;;13.81;73.31;101426.16;5095836;28;20024;-78
2022/06/20 01:27:07;;;;;;;0.60;0.47;;;;;;;13.81;73.37;101412.28;5076128;28;20423;-79
2022/06/20 01:29:32;;;;;;;0.70;0.52;;;;;;;13.79;73.35;101395.78;5095531;28;20035;-79
2022/06/20 01:32:02;;;;;;;0.73;0.50;;;;;;;13.77;73.14;101381.91;5096524;28;20032;-79
2022/06/20 01:34:27;;;;;;;0.43;0.38;;;;;;;13.73;73.14;101391.56;5095618;28;20421;-79
2022/06/20 01:39:42;;;;;;;0.60;0.60;;;;;;;13.66;74.26;101389.97;5096438;28;20174;-79
2022/06/20 01:42:20;;;;;;;3.40;1.13;;;;;;;13.56;74.41;101384.94;5095783;28;20103;-79
2022/06/20 01:45:57;;;;;;;2.97;1.15;;;;;;;13.51;73.83;101365.88;5096088;28;20024;-79
2022/06/20 01:48:03;;;;;;;0.75;0.73;;;;;;;13.46;74.10;101365.09;5096145;28;20361;-78
2022/06/20 01:50:31;;;;;;;1.13;0.60;;;;;;;13.43;74.36;101359.97;5097096;28;20107;-79
2022/06/20 01:53:01;;;;;;;0.77;0.77;;;;;;;13.40;74.39;101363.47;5096116;28;20032;-78
2022/06/20 01:55:27;;;;;;;0.95;0.65;;;;;;;13.37;74.42;101355.69;5095154;28;20025;-78
2022/06/20 01:57:58;;;;;;;0.50;0.50;;;;;;;13.35;74.09;101349.66;5095500;28;20036;-78
2022/06/20 02:00:24;;;;;;;0.52;0.52;;;;;;;13.34;73.77;101354.91;5095803;28;20099;-78
2022/06/20 02:03:01;;;;;;;1.42;0.80;;;;;;;13.34;74.00;101353.16;5094229;28;20052;-79
2022/06/20 02:05:31;;;;;;;0.77;0.50;;;;;;;13.32;73.62;101349.69;5096207;28;20038;-79
2022/06/20 02:08:00;;;;;;;1.23;0.63;;;;;;;13.32;74.19;101341.88;5096021;28;20040;-79
2022/06/20 02:10:31;;;;;;;0.75;0.75;;;;;;;13.31;73.48;101332.34;5094838;28;20032;-79
2022/06/20 02:13:00;;;;;;;1.05;0.68;;;;;;;13.27;74.56;101325.47;5095703;28;20044;-79
2022/06/20 02:15:26;;;;;;;1.10;0.50;;;;;;;13.24;74.00;101320.31;5094731;28;20032;-79
2022/06/20 02:17:52;;;;;;;0.43;0.43;;;;;;;13.21;75.05;101321.25;5095264;28;20074;-79
2022/06/20 02:20:21;;;;;;;2.00;0.80;;;;;;;13.21;75.25;101323.84;5095735;28;20384;-78
2022/06/20 02:22:49;;;;;;;0.98;0.50;;;;;;;13.20;74.67;101313.44;5095274;28;20107;-79
2022/06/20 02:25:19;;;;;;;2.10;0.98;;;;;;;13.17;75.40;101310.91;5095406;28;20054;-79
2022/06/20 02:27:51;;;;;;;1.50;0.98;;;;;;;13.12;75.28;101300.53;5094316;28;20085;-79
2022/06/20 02:30:17;;;;;;;1.42;0.85;;;;;;;13.09;74.75;101295.41;5093801;28;20472;-79
2022/06/20 02:32:53;;;;;;;0.80;0.80;;;;;;;13.08;74.94;101298.91;5095180;28;20063;-78
2022/06/20 02:35:20;;;;;;;1.02;0.70;;;;;;;13.08;74.64;101291.94;5095342;28;20028;-78
2022/06/20 02:37:47;;;;;;;0.75;0.73;;;;;;;13.07;74.75;101289.34;5094256;28;20024;-78
2022/06/20 02:40:16;;;;;;;0.63;0.63;;;;;;;13.07;74.63;101292.81;5095100;28;20020;-79
2022/06/20 02:42:48;;;;;;;1.08;0.60;;;;;;;13.07;75.03;101300.63;5095185;28;20024;-79
2022/06/20 02:45:15;;;;;;;2.80;0.93;;;;;;;13.06;74.12;101298.91;5094594;28;20107;-78
2022/06/20 02:47:50;;;;;;;0.75;0.75;;;;;;;13.02;74.69;101296.38;5094232;28;20032;-79
2022/06/20 02:50:19;;;;;;;1.25;0.75;;;;;;;13.00;74.46;101283.41;5093225;28;20028;-78
2022/06/20 02:52:55;;;;;;;1.75;1.02;;;;;;;12.95;76.14;101273.06;5092991;28;20032;-78
2022/06/20 02:55:23;;;;;;;1.70;0.90;;;;;;;12.94;75.08;101279.16;5094945;28;20051;-79
2022/06/20 02:57:58;;;;;;;0.68;0.68;;;;;;;12.93;75.92;101260.97;5093001;28;20032;-78
2022/06/20 03:00:44;;;;;;;0.60;0.60;;;;;;;12.92;75.07;101246.22;5094997;28;20073;-78
2022/06/20 03:03:16;;;;;;;0.60;0.60;;;;;;;12.90;74.44;101246.22;5094499;28;20048;-78
2022/06/20 03:05:41;;;;;;;0.32;0.32;;;;;;;12.90;74.57;101242.78;5093339;28;20027;-78
2022/06/20 03:08:07;;;;;;;0.40;0.30;;;;;;;12.86;74.48;101228.06;5095079;28;20031;-79
2022/06/20 03:10:40;;;;;;;0.73;0.63;;;;;;;12.83;75.07;101237.66;5094759;28;20388;-78
2022/06/20 03:13:09;;;;;;;1.75;1.00;;;;;;;12.80;75.50;101242.94;5094351;28;20028;-79
2022/06/20 03:15:36;;;;;;;1.58;0.95;;;;;;;12.80;75.02;101248.16;5094257;28;20496;-78
2022/06/20 03:18:04;;;;;;;0.80;0.80;;;;;;;12.81;75.08;101252.47;5095133;28;20023;-78
2022/06/20 03:20:29;;;;;;;0.50;0.50;;;;;;;12.81;74.72;101255.09;5094116;28;20541;-79
2022/06/20 03:23:12;;;;;;;0.50;0.50;;;;;;;12.84;74.33;101248.97;5094089;28;20024;-79
2022/06/20 03:25:40;;;;;;;0.52;0.52;;;;;;;12.83;74.30;101250.69;5093330;28;20464;-78
2022/06/20 03:28:11;;;;;;;0.90;0.60;;;;;;;12.83;74.52;101263.72;5094646;28;20020;-78
2022/06/20 03:30:36;;;;;;;1.77;0.60;;;;;;;12.84;73.72;101272.41;5095217;28;20051;-78
2022/06/20 03:33:11;;;;;;;0.50;0.50;;;;;;;12.84;74.68;101275.00;5094377;28;20051;-78
2022/06/20 03:35:38;;;;;;;2.72;1.13;;;;;;;12.78;76.29;101283.78;5094524;28;20032;-78
2022/06/20 03:38:06;;;;;;;4.22;1.80;;;;;;;12.73;76.15;101282.16;5095806;28;20025;-78
2022/06/20 03:40:33;;;;;;;3.83;1.85;;;;;;;12.69;76.86;101283.94;5095798;28;20149;-79
2022/06/20 03:43:01;;;;;;;3.65;1.50;;;;;;;12.68;75.64;101292.66;5092667;28;20103;-79
2022/06/20 03:45:28;;;;;;;;;;;;;;;12.71;76.41;101302.16;5094467;28;20020;-78
2022/06/20 03:48:02;;;;;;;1.90;1.20;;;;;;;12.75;75.22;101319.44;5093238;28;19912;-79
2022/06/20 03:50:32;;;;;;;1.75;1.00;;;;;;;12.79;75.18;101327.19;5093432;28;20090;-79
2022/06/20 03:53:09;;;;;;;0.93;0.73;;;;;;;12.83;75.49;101330.59;5093281;28;20472;-79
2022/06/20 03:55:46;;;;;;;0.70;0.70;;;;;;;12.90;74.69;101346.97;5092777;28;20077;-79
2022/06/20 03:58:16;;;;;;;;;;;;;;;12.95;75.00;101346.00;5094336;28;20020;-79
2022/06/20 04:00:50;;;;;;;0.52;0.52;;;;;;;12.98;75.48;101340.75;5093172;28;20283;-78
2022/06/20 04:03:27;;;;;;;0.50;0.47;;;;;;;13.00;75.22;101337.28;5093688;28;20047;-79
2022/06/20 04:06:06;;;;;;;0.85;0.60;;;;;;;13.05;75.66;101351.94;5093637;28;20081;-79
2022/06/20 04:11:41;;;;;;;0.95;0.60;;;;;;;13.06;75.21;101345.81;5093967;28;20059;-78
2022/06/20 04:14:13;;;;;;;3.03;1.08;;;;;;;13.07;76.68;101357.09;5093715;28;20024;-79
2022/06/20 04:16:51;;;;;;;2.13;1.00;;;;;;;13.04;76.94;101358.03;5092817;28;20089;-78
2022/06/20 04:19:25;;;;;;;2.05;0.93;;;;;;;13.04;76.16;101363.25;5093846;28;20032;-79
2022/06/20 04:22:11;;;;;;;1.08;0.85;;;;;;;13.08;75.80;101364.03;5093001;28;20026;-79
2022/06/20 04:24:50;;;;;;;0.90;0.73;;;;;;;13.12;75.63;101371.78;5093751;28;20054;-79
2022/06/20 04:27:23;;;;;;;1.63;1.13;;;;;;;13.15;76.99;101373.47;5095501;28;20020;-79
2022/06/20 04:30:01;;;;;;;0.82;0.82;;;;;;;13.13;77.57;101376.09;5091795;28;20031;-81
2022/06/20 04:32:48;;;;;;;2.25;0.82;;;;;;;13.13;76.64;101380.44;5093384;28;20039;-78
2022/06/20 04:35:42;;;;;;;0.73;0.70;;;;;;;13.16;75.99;101384.75;5093827;28;20028;-79
2022/06/20 04:38:19;;;;;;;0.98;0.98;;;;;;;13.19;77.38;101387.28;5070150;28;20088;-78
2022/06/20 04:40:58;;;;;;;;;;;;;;;13.14;77.96;101384.78;5093749;28;20511;-79
2022/06/20 04:43:33;;;;;;;2.80;1.70;;;;;;;13.11;77.79;101385.69;5092224;28;19919;-79
2022/06/20 04:46:04;;;;;;;3.10;1.80;;;;;;;13.09;78.81;101384.00;5094276;28;20426;-79
2022/06/20 04:48:32;;;;;;;2.85;1.50;;;;;;;13.08;78.88;101388.34;5093072;28;20060;-79
2022/06/20 04:51:03;;;;;;;2.72;1.58;;;;;;;13.09;77.87;101395.28;5092112;28;20032;-79
2022/06/20 04:53:35;;;;;;;1.80;1.30;;;;;;;13.17;77.28;101404.72;5093596;28;20027;-79
2022/06/20 04:56:03;;;;;;;1.63;1.10;;;;;;;13.25;77.25;101401.09;5097579;28;20384;-79
2022/06/20 04:58:35;;;;;;;0.68;0.65;;;;;;;13.35;77.37;101414.81;5096053;28;20024;-80
2022/06/20 05:01:03;;;;;;;0.68;0.68;;;;;;;13.44;77.51;101404.25;5097556;28;20052;-80
2022/06/20 05:03:44;;;;;;;2.90;0.90;;;;;;;13.48;78.75;101405.06;5096725;28;20488;-79
2022/06/20 05:06:24;;;;;;;2.40;1.33;;;;;;;13.48;77.69;101409.41;5095374;28;20542;-80
2022/06/20 05:08:53;;;;;;;1.00;0.90;;;;;;;13.53;77.35;101404.97;5096286;28;20102;-80
2022/06/20 05:11:24;;;;;;;2.70;1.10;;;;;;;13.58;77.66;101406.59;5095859;28;20099;-80
2022/06/20 05:14:04;;;;;;;2.72;1.33;;;;;;;13.57;77.64;101410.09;5096827;28;20103;-80
2022/06/20 05:16:34;;;;;;;3.53;1.65;;;;;;;13.52;79.22;101406.72;5096814;28;20028;-79
2022/06/20 05:19:06;;;;;;;2.17;1.55;;;;;;;13.53;79.53;101410.19;5095601;28;20078;-80
2022/06/20 05:21:37;;;;;;;4.03;1.60;;;;;;;13.51;79.28;101417.19;5096803;28;20392;-79
2022/06/20 05:24:11;;;;;;;1.50;1.40;;;;;;;13.50;78.10;101412.88;5096789;28;20073;-80
2022/06/20 05:26:41;;;;;;;2.08;1.55;;;;;;;13.51;78.02;101428.47;5095032;28;20028;-79
2022/06/20 05:29:15;;;;;;;1.17;1.00;;;;;;;13.54;77.33;101437.97;5096615;28;20387;-80
2022/06/20 05:31:44;;;;;;;0.77;0.75;;;;;;;13.58;77.50;101429.22;5096164;28;20099;-80
2022/06/20 05:34:09;;;;;;;1.15;0.80;;;;;;;13.62;77.80;101423.06;5096128;28;20020;-80
2022/06/20 05:36:41;;;;;;;1.77;0.90;;;;;;;13.64;77.68;101407.38;5095040;28;20089;-80
2022/06/20 05:39:15;;;;;;;1.20;0.90;;;;;;;13.66;78.07;101416.03;5096031;28;20037;-79
2022/06/20 05:41:41;;;;;;;2.63;1.20;;;;;;;13.64;77.92;101423.88;5096610;28;20028;-80
2022/06/20 05:44:13;;;;;;;1.67;1.40;;;;;;;13.62;77.43;101404.81;5096557;28;20024;-80
2022/06/20 05:46:56;;;;;;;2.22;1.50;;;;;;;13.64;77.85;101402.16;5095156;28;20125;-77
2022/06/20 05:49:28;;;;;;;2.45;1.73;;;;;;;13.59;77.43;101402.25;5096066;28;20034;-80
2022/06/20 05:51:58;;;;;;;5.28;1.90;;;;;;;13.59;77.35;101410.09;5095374;28;20464;-78
2022/06/20 05:54:29;;;;;;;3.28;1.60;;;;;;;13.57;77.47;101412.69;5095476;28;20052;-78
2022/06/20 05:57:00;;;;;;;3.42;1.67;;;;;;;13.61;78.43;101416.13;5095783;28;20054;-77
2022/06/20 05:59:33;;;;;;;4.65;2.30;;;;;;;13.62;78.40;101420.47;5095881;28;20035;-78
2022/06/20 06:02:09;;;;;;;5.70;2.20;;;;;;;13.67;78.55;101429.03;5094592;28;20113;-79
2022/06/20 06:04:44;;;;;;;6.53;2.10;;;;;;;13.75;77.87;101432.38;5096044;28;20055;-78
2022/06/20 06:07:16;;;;;;;2.00;1.50;;;;;;;13.83;77.81;101432.22;5094726;28;20020;-78
2022/06/20 06:10:08;;;;;;;3.25;1.77;;;;;;;13.92;77.36;101436.41;5093721;28;20020;-76
2022/06/20 06:12:43;;;;;;;4.13;1.90;;;;;;;14.01;77.59;101438.81;5095490;28;20027;-79
2022/06/20 06:15:29;;;;;;;2.55;1.70;;;;;;;14.08;77.42;101433.47;5095302;28;20031;-79
2022/06/20 06:18:00;;;;;;;6.82;2.17;;;;;;;14.05;76.20;101429.19;5094822;28;20468;-79
2022/06/20 06:20:30;;;;;;;4.32;2.10;;;;;;;13.98;76.88;101431.06;5095361;28;20036;-79
2022/06/20 06:23:00;;;;;;;6.00;2.35;;;;;;;13.93;76.76;101429.41;5094367;28;20068;-78
2022/06/20 06:25:28;;;;;;;3.65;2.08;;;;;;;13.94;76.55;101432.03;5094224;28;20036;-77
2022/06/20 06:28:09;;;;;;;5.65;2.08;;;;;;;14.00;76.52;101437.09;5095309;28;20107;-78
2022/06/20 06:30:40;;;;;;;4.25;1.92;;;;;;;14.04;75.91;101441.38;5094458;28;20043;-78
2022/06/20 06:33:20;;;;;;;4.47;2.00;;;;;;;14.10;75.71;101435.19;5095442;28;20032;-77
2022/06/20 06:35:51;;;;;;;3.08;1.80;;;;;;;14.14;75.55;101433.34;5093796;28;20386;-78
2022/06/20 06:38:32;;;;;;;3.00;1.85;;;;;;;14.21;75.71;101435.81;5095471;28;20110;-78
2022/06/20 06:40:59;;;;;;;3.00;1.80;;;;;;;14.32;75.66;101434.72;5094666;28;20571;-78
2022/06/20 06:43:37;;;;;;;5.55;2.20;;;;;;;14.48;74.27;101443.94;5093619;28;20028;-78
2022/06/20 06:46:10;;;;;;;7.45;2.25;;;;;;;14.77;73.73;101438.97;5094866;28;20020;-78
2022/06/20 06:48:51;;;;;;;2.42;1.75;;;;;;;15.12;74.14;101445.97;5093511;28;20450;-79
2022/06/20 06:51:38;;;;;;;2.33;1.80;;;;;;;15.59;72.29;101455.28;5085464;28;20035;-78
2022/06/20 06:54:25;;;;;;;4.32;2.00;;;;;;;15.96;67.05;101458.66;5094409;28;20471;-79
2022/06/20 06:57:07;;;;;;;4.80;2.00;;;;;;;16.10;70.03;101466.13;5094673;28;20032;-79
2022/06/20 06:59:55;;;;;;;3.30;2.10;;;;;;;16.20;67.55;101459.72;5094915;28;20020;-79
2022/06/20 07:02:23;;;;;;;5.53;2.30;;;;;;;16.19;68.00;101471.97;5094871;28;20040;-79
2022/06/20 07:05:24;;;;;;;7.35;2.47;;;;;;;16.18;68.00;101472.00;5094084;28;20031;-79
2022/06/20 07:07:56;;;;;;;6.13;2.10;;;;;;;16.31;66.46;101482.97;5063566;28;20047;-79
2022/06/20 07:10:59;;;;;;;4.10;2.00;;;;;;;16.42;65.39;101480.91;5094717;28;20021;-79
2022/06/20 07:13:35;;;;;;;3.90;1.88;;;;;;;16.33;66.85;101483.78;5052443;28;20046;-79
2022/06/20 07:16:03;;;;;;;;;;;;;;;16.28;65.30;101486.53;5094342;28;20059;-79
2022/06/20 07:18:42;;;;;;;4.25;2.00;;;;;;;16.20;66.59;101483.28;5093939;28;19965;-79
2022/06/20 07:21:10;;;;;;;2.65;1.70;;;;;;;16.32;66.18;101492.56;5094521;28;20024;-79
2022/06/20 07:23:36;;;;;;;2.55;1.80;;;;;;;16.34;66.37;101486.38;5094261;28;20028;-79
2022/06/20 07:26:01;;;;;;;3.20;1.90;;;;;;;16.40;66.43;101487.94;5093197;28;20101;-79
2022/06/20 07:28:35;;;;;;;1.77;1.60;;;;;;;16.65;66.67;101492.47;5094154;28;20431;-79
2022/06/20 07:31:14;;;;;;;1.83;1.40;;;;;;;17.10;66.47;101491.97;5093608;28;20051;-79
2022/06/20 07:33:51;;;;;;;2.47;1.50;;;;;;;17.63;65.77;101495.44;5093004;28;20426;-79
2022/06/20 07:36:22;;;;;;;3.63;1.75;;;;;;;17.88;59.09;101489.34;5094027;28;20034;-79
2022/06/20 07:38:54;;;;;;;5.68;2.00;;;;;;;17.88;59.62;101489.34;5093368;28;20035;-79
2022/06/20 07:41:25;;;;;;;3.75;2.13;;;;;;;17.79;59.02;101490.50;5093829;28;20434;-79
2022/06/20 07:44:09;;;;;;;2.20;1.80;;;;;;;18.03;60.14;101485.34;5093441;28;20371;-79
2022/06/20 07:46:44;;;;;;;5.75;2.30;;;;;;;18.21;56.83;101478.53;5092798;28;20484;-79
2022/06/20 07:49:31;;;;;;;3.47;1.90;;;;;;;18.27;57.28;101480.94;5093436;28;20483;-79
2022/06/20 07:52:02;;;;;;;5.47;1.95;;;;;;;18.15;59.18;101494.53;5093280;28;20078;-79
2022/06/20 07:54:36;;;;;;;4.03;1.88;;;;;;;17.94;59.48;101496.97;5092856;28;20034;-79
2022/06/20 07:57:13;;;;;;;4.93;2.00;;;;;;;17.82;60.44;101502.66;5092646;28;20430;-79
2022/06/20 08:00:10;;;;;;;6.53;2.15;;;;;;;17.83;58.54;101504.38;5092987;28;20032;-79
2022/06/20 08:02:44;;;;;;;4.30;1.77;;;;;;;17.80;60.93;101509.72;5093180;28;20514;-80
2022/06/20 08:05:14;;;;;;;6.05;2.10;;;;;;;17.72;56.92;101504.78;5093002;28;20099;-79
2022/06/20 08:07:48;;;;;;;3.88;2.00;;;;;;;17.76;59.90;101509.00;5092060;28;20037;-79
2022/06/20 08:10:20;;;;;;;2.92;2.00;;;;;;;17.82;59.95;101513.16;5093386;28;20032;-79
2022/06/20 08:12:45;;;;;;;2.60;1.80;;;;;;;17.99;59.10;101517.84;5092316;28;20028;-79
2022/06/20 08:15:20;;;;;;;4.63;2.10;;;;;;;18.09;55.27;101513.16;5092433;28;20495;-79
2022/06/20 08:17:45;;;;;;;5.65;2.53;;;;;;;17.88;56.56;101510.34;5092484;28;20040;-80
2022/06/20 08:20:11;;;;;;;3.07;2.00;;;;;;;17.84;57.27;101509.59;5093591;28;20024;-79
2022/06/20 08:23:02;;;;;;;3.28;2.00;;;;;;;18.02;55.72;101505.47;5092365;28;20134;-79
2022/06/20 08:25:35;;;;;;;3.60;2.20;;;;;;;18.20;56.07;101506.56;5093325;28;20051;-78
2022/06/20 08:28:08;;;;;;;3.03;2.10;;;;;;;18.40;53.85;101499.75;5092624;28;20024;-79
2022/06/20 08:30:39;;;;;;;4.70;2.10;;;;;;;18.65;56.28;101511.91;5092945;28;20035;-79
2022/06/20 08:33:25;;;;;;;4.63;2.10;;;;;;;18.85;51.33;101508.50;5093121;28;20077;-79
2022/06/20 08:35:51;;;;;;;;;;;;;;;18.64;51.27;101518.09;5092306;28;20055;-78
2022/06/20 08:38:31;;;;;;;6.57;2.35;;;;;;;18.49;51.17;101516.91;5092916;28;20371;-78
2022/06/20 08:41:23;;;;;;;3.35;2.08;;;;;;;18.14;54.43;101521.69;5092750;28;20145;-79
2022/06/20 08:44:00;;;;;;;2.72;1.95;;;;;;;17.95;55.34;101527.59;5091702;28;20027;-79
2022/06/20 08:46:50;;;;;;;5.57;2.20;;;;;;;17.65;53.56;101525.13;5092874;28;20111;-78
2022/06/20 08:49:35;;;;;;;5.07;2.53;;;;;;;17.43;53.68;101531.09;5092157;28;20028;-79
2022/06/20 08:52:37;;;;;;;4.32;2.30;;;;;;;17.23;54.45;101531.75;5092536;28;20040;-78
2022/06/20 08:55:28;;;;;;;2.67;1.83;;;;;;;17.41;56.89;101538.16;5092712;28;20039;-79
2022/06/20 08:58:02;;;;;;;2.35;1.90;;;;;;;17.94;56.40;101541.63;5091824;28;20038;-79
2022/06/20 09:01:08;;;;;;;3.70;2.00;;;;;;;18.45;53.65;101533.72;5092762;28;20051;-78
2022/06/20 09:03:37;;;;;;;4.47;2.00;;;;;;;18.71;56.07;101538.00;5091612;28;20563;-79
2022/06/20 09:06:08;;;;;;;5.30;2.30;;;;;;;19.03;52.95;101538.53;5092095;28;20032;-79
2022/06/20 09:08:51;;;;;;;3.70;2.20;;;;;;;19.38;53.47;101538.00;5092604;28;20427;-79
2022/06/20 09:11:53;;;;;;;2.53;1.83;;;;;;;19.73;50.97;101544.44;5091517;28;20024;-78
2022/06/20 09:14:48;;;;;;;4.05;2.20;;;;;;;19.67;52.92;101539.41;5091875;28;20024;-79
2022/06/20 09:17:50;;;;;;;2.97;2.00;;;;;;;19.39;50.85;101551.13;5092501;28;20067;-79
2022/06/20 09:20:42;;;;;;;6.25;2.40;;;;;;;19.18;48.74;101558.09;5092175;28;20028;-78
2022/06/20 09:23:26;;;;;;;5.60;2.20;;;;;;;19.06;50.19;101556.81;5078125;28;20038;-79
2022/06/20 09:26:07;;;;;;;4.55;2.13;;;;;;;19.28;50.95;101553.34;5091344;28;20039;-79
2022/06/20 09:28:47;;;;;;;3.00;1.90;;;;;;;19.64;50.50;101559.75;5092081;28;20035;-79
2022/06/20 09:31:42;;;;;;;4.90;2.15;;;;;;;19.69;46.38;101555.16;5092295;28;20024;-77
2022/06/20 09:34:28;;;;;;;2.42;1.77;;;;;;;19.74;50.02;101561.06;5092233;28;20039;-78
2022/06/20 09:37:08;;;;;;;6.00;2.10;;;;;;;20.04;48.90;101558.09;5091902;28;20036;-78
2022/06/20 09:39:52;;;;;;;3.55;2.00;;;;;;;20.38;49.00;101556.56;5087304;28;20069;-79
2022/06/20 09:42:32;;;;;;;7.40;2.22;;;;;;;20.60;48.29;101561.72;5086440;28;20118;-78
2022/06/20 09:45:21;;;;;;;5.93;2.20;;;;;;;20.59;48.89;101565.28;5094120;28;20172;-78
2022/06/20 09:48:14;;;;;;;3.13;1.90;;;;;;;20.37;46.60;101565.41;5074647;28;20038;-79
2022/06/20 09:51:01;;;;;;;7.97;2.63;;;;;;;19.62;47.05;101561.59;5074406;28;20039;-78
2022/06/20 09:53:47;;;;;;;6.55;2.40;;;;;;;19.53;48.56;101553.16;5081426;28;20461;-78
2022/06/20 09:56:19;;;;;;;2.88;1.90;;;;;;;19.92;49.85;101556.00;5093976;28;20027;-79
2022/06/20 09:58:58;;;;;;;2.63;1.90;;;;;;;20.37;49.46;101560.16;5094025;28;20036;-78
2022/06/20 10:01:42;;;;;;;5.65;2.30;;;;;;;20.64;47.69;101551.88;5094045;28;20067;-79
2022/06/20 10:04:11;;;;;;;6.30;2.40;;;;;;;20.76;45.61;101546.06;5095103;28;20028;-78
2022/06/20 10:07:05;;;;;;;4.95;2.30;;;;;;;20.97;49.11;101553.88;5094495;28;20384;-79
2022/06/20 10:09:41;;;;;;;2.65;1.90;;;;;;;21.19;47.39;101550.19;5095338;28;20043;-79
2022/06/20 10:12:44;;;;;;;;;;;;;;;21.29;44.30;101557.59;5095716;28;20104;-79
2022/06/20 10:15:43;;;;;;;5.43;2.28;;;;;;;21.54;46.98;101563.44;5012244;28;19917;-80
2022/06/20 10:18:35;;;;;;;4.57;2.17;;;;;;;21.84;46.63;101560.22;5013294;28;20041;-79
2022/06/20 10:21:14;;;;;;;4.03;2.20;;;;;;;21.63;45.21;101562.16;5083401;28;20040;-79
2022/06/20 10:24:10;;;;;;;8.15;2.47;;;;;;;21.24;44.48;101564.03;5095067;28;20024;-80
2022/06/20 10:27:06;;;;;;;6.68;2.50;;;;;;;21.00;43.42;101571.38;5095076;28;20388;-79
2022/06/20 10:29:46;;;;;;;5.32;2.47;;;;;;;20.77;44.23;101568.88;5094417;28;20379;-79
2022/06/20 10:32:18;;;;;;;5.63;2.53;;;;;;;20.81;44.53;101573.09;5095189;28;20095;-79
2022/06/20 10:35:06;;;;;;;5.75;2.30;;;;;;;20.77;44.40;101579.44;5094068;28;20035;-79
2022/06/20 10:37:41;;;;;;;4.90;2.30;;;;;;;20.81;46.96;101581.00;5094965;28;20031;-79
2022/06/20 10:40:24;;;;;;;5.05;2.40;;;;;;;21.17;44.65;101579.31;5094883;28;20035;-79
2022/06/20 10:43:24;;;;;;;3.60;2.40;;;;;;;21.31;44.21;101583.91;5093824;28;20032;-79
2022/06/20 10:46:06;;;;;;;6.45;2.42;;;;;;;20.81;44.42;101581.00;5094681;28;20461;-79
2022/06/20 10:49:03;;;;;;;3.72;2.00;;;;;;;20.76;45.07;101590.91;5094578;28;20024;-79
2022/06/20 10:51:42;;;;;;;5.13;2.20;;;;;;;21.04;46.74;101591.38;5094480;28;20028;-79
2022/06/20 10:54:14;;;;;;;3.33;2.05;;;;;;;21.22;42.44;101595.75;5094624;28;20024;-79
2022/06/20 10:56:59;;;;;;;5.13;2.63;;;;;;;20.96;44.01;101597.88;5093671;28;20473;-79
2022/06/20 10:59:27;;;;;;;5.43;2.38;;;;;;;20.64;43.52;101600.22;5094364;28;20066;-79
2022/06/20 11:02:01;;;;;;;6.85;2.40;;;;;;;20.66;42.86;101598.34;5094078;28;20481;-80
2022/06/20 11:04:44;;;;;;;3.40;2.00;;;;;;;21.06;46.27;101597.44;5093942;28;20460;-79
2022/06/20 11:07:20;;;;;;;2.17;1.70;;;;;;;21.34;45.13;101594.34;5094747;28;20035;-79
2022/06/20 11:10:04;;;;;;;;;;;;;;;21.32;45.91;101598.81;5094439;28;20024;-79
2022/06/20 11:12:36;;;;;;;2.95;1.80;;;;;;;21.24;46.58;101603.63;5094261;28;19936;-79
2022/06/20 11:15:20;;;;;;;2.42;1.60;;;;;;;21.27;46.68;101606.97;5094307;28;20020;-81
2022/06/20 11:18:06;;;;;;;1.30;1.20;;;;;;;21.47;47.48;101599.84;5091781;28;20077;-77
2022/06/20 11:20:47;;;;;;;3.33;1.80;;;;;;;21.62;45.44;101611.47;5094056;28;20047;-79
2022/06/20 11:23:20;;;;;;;6.75;2.47;;;;;;;21.40;44.39;101607.22;5093951;28;20460;-79
2022/06/20 11:26:05;;;;;;;5.00;2.58;;;;;;;20.98;42.65;101611.00;5092623;28;20028;-79
2022/06/20 11:28:56;;;;;;;7.93;2.53;;;;;;;20.80;44.70;101607.44;5094033;28;20024;-79
2022/06/20 11:31:36;;;;;;;3.80;2.00;;;;;;;21.11;46.73;101608.66;5093324;28;20023;-79
2022/06/20 11:34:28;;;;;;;1.88;1.65;;;;;;;21.53;45.84;101607.50;5093827;28;20059;-79
2022/06/20 11:37:20;;;;;;;2.58;1.90;;;;;;;21.84;45.04;101610.41;5073745;28;20040;-78
2022/06/20 11:40:21;;;;;;;5.47;2.38;;;;;;;22.00;43.97;101607.84;5091788;28;20044;-79
2022/06/20 11:43:10;;;;;;;2.00;1.80;;;;;;;22.45;43.10;101602.88;5039501;28;20085;-79
2022/06/20 11:45:57;;;;;;;6.25;2.20;;;;;;;22.47;39.51;101604.50;5092836;28;20035;-80
2022/06/20 11:48:31;;;;;;;6.50;2.33;;;;;;;22.09;40.10;101607.38;5093214;28;20412;-79
2022/06/20 11:51:09;;;;;;;2.58;1.70;;;;;;;21.71;42.33;101603.13;5087156;28;20251;-80
2022/06/20 11:53:44;;;;;;;4.22;2.33;;;;;;;21.25;41.26;101597.44;5092868;28;20031;-79
2022/06/20 11:56:35;;;;;;;4.07;2.10;;;;;;;21.37;43.73;101599.47;5093378;28;20476;-79
2022/06/20 11:59:32;;;;;;;4.53;2.17;;;;;;;21.57;40.35;101597.63;5092902;28;20067;-79
2022/06/20 12:02:31;;;;;;;6.35;2.42;;;;;;;21.64;42.44;101606.97;5092777;28;20078;-79
2022/06/20 12:05:15;;;;;;;5.00;2.13;;;;;;;21.60;41.47;101606.28;5091958;28;20959;-79
2022/06/20 12:08:01;;;;;;;4.35;2.20;;;;;;;21.61;43.59;101604.50;5074253;28;20047;-79
2022/06/20 12:10:32;;;;;;;;;;;;;;;21.65;42.76;101606.03;5093802;28;20023;-80
2022/06/20 12:13:24;;;;;;;5.72;2.40;;;;;;;21.22;42.34;101608.97;5092995;28;19951;-79
2022/06/20 12:16:21;;;;;;;3.10;1.70;;;;;;;21.04;43.72;101610.72;5093056;28;20031;-79